Time;durP1;ratioP1;P1;durP2;ratioP2;P2;SDS_P1;SDS_P2;PMS_P1;PMS_P2;Temp;Humidity;BMP_temperature;BMP_pressure;BME280_temperature;BME280_humidity;BME280_pressure;Samples;Min_cycle;Max_cycle;Signal;HPM_P1;HPM_P2
2022/10/28 00:04:16;;;;;;;5.20;3.60;;;15.40;42.90;;;;;;10365521;28;20892;-70
2022/10/28 00:09:21;;;;;;;6.57;3.57;;;15.40;42.80;;;;;;10366753;28;20234;-69
2022/10/28 00:14:24;;;;;;;4.20;3.73;;;15.40;43.00;;;;;;10366460;28;20248;-70
2022/10/28 00:19:27;;;;;;;4.70;3.70;;;15.40;42.80;;;;;;10368196;28;20307;-69
2022/10/28 00:24:31;;;;;;;6.87;3.40;;;15.30;42.70;;;;;;10364051;28;22117;-70
2022/10/28 00:29:35;;;;;;;5.33;3.80;;;15.30;42.70;;;;;;10371261;28;20230;-70
2022/10/28 00:34:38;;;;;;;3.63;3.03;;;15.20;42.50;;;;;;10365568;28;20265;-72
2022/10/28 00:39:42;;;;;;;3.63;3.33;;;15.20;42.50;;;;;;10367227;28;20284;-70
2022/10/28 00:44:59;;;;;;;4.63;3.07;;;15.20;43.00;;;;;;10364120;28;20927;-70
2022/10/28 00:50:12;;;;;;;4.43;3.33;;;15.10;43.10;;;;;;10370182;28;20242;-70
2022/10/28 00:55:19;;;;;;;3.83;3.10;;;15.10;43.10;;;;;;10374485;28;20280;-70
2022/10/28 01:00:23;;;;;;;4.80;3.57;;;15.10;43.20;;;;;;10375045;28;20715;-70
2022/10/28 01:05:29;;;;;;;5.30;3.17;;;15.00;42.90;;;;;;10377163;28;20272;-70
2022/10/28 01:11:02;;;;;;;3.47;2.97;;;15.00;43.20;;;;;;10373216;28;20236;-70
2022/10/28 01:16:10;;;;;;;6.00;3.90;;;14.90;43.70;;;;;;10370376;28;20233;-70
2022/10/28 01:21:47;;;;;;;6.27;3.53;;;14.90;43.30;;;;;;10372371;28;20229;-70
2022/10/28 01:27:21;;;;;;;4.33;3.17;;;14.90;43.50;;;;;;10370800;28;20230;-70
2022/10/28 01:32:32;;;;;;;4.90;3.07;;;14.90;43.40;;;;;;10373583;28;20677;-70
2022/10/28 01:37:40;;;;;;;5.30;3.07;;;14.90;43.30;;;;;;10371812;28;20233;-70
2022/10/28 01:42:51;;;;;;;4.43;2.80;;;14.80;43.20;;;;;;10375717;28;20226;-70
2022/10/28 01:48:00;;;;;;;2.70;2.50;;;14.70;43.40;;;;;;10372357;28;20225;-70
2022/10/28 01:53:11;;;;;;;2.90;2.70;;;14.70;43.40;;;;;;10370396;28;20226;-70
2022/10/28 01:58:18;;;;;;;6.57;3.27;;;14.70;43.60;;;;;;10371135;28;20229;-70
2022/10/28 02:03:23;;;;;;;3.47;3.17;;;14.60;43.30;;;;;;10372468;28;20249;-70
2022/10/28 02:08:43;;;;;;;2.87;2.60;;;14.60;43.20;;;;;;10376870;28;20238;-70
2022/10/28 02:13:56;;;;;;;3.43;2.67;;;14.60;43.60;;;;;;10383439;28;20229;-70
2022/10/28 02:19:11;;;;;;;3.73;2.63;;;14.60;43.60;;;;;;10377023;28;20237;-70
2022/10/28 02:24:20;;;;;;;4.27;3.00;;;14.60;43.60;;;;;;10376975;28;20225;-72
2022/10/28 02:29:33;;;;;;;4.57;3.17;;;14.50;43.20;;;;;;10373302;28;20241;-70
2022/10/28 02:34:42;;;;;;;3.03;2.73;;;14.50;43.70;;;;;;10374817;28;20347;-69
2022/10/28 02:39:49;;;;;;;2.87;2.50;;;14.40;43.60;;;;;;10373758;28;20234;-70
2022/10/28 02:44:55;;;;;;;3.33;2.87;;;14.40;43.80;;;;;;10374298;28;20248;-70
2022/10/28 02:50:04;;;;;;;5.17;2.93;;;14.40;43.80;;;;;;10375191;28;20288;-70
2022/10/28 02:55:08;;;;;;;3.20;2.90;;;14.40;43.80;;;;;;10373278;28;20237;-70
2022/10/28 03:00:15;;;;;;;4.80;3.00;;;14.40;43.30;;;;;;10377354;28;20237;-73
2022/10/28 03:05:19;;;;;;;4.60;2.70;;;14.30;43.70;;;;;;10372125;28;20700;-72
2022/10/28 03:10:22;;;;;;;3.63;3.00;;;14.30;43.70;;;;;;10376531;28;20265;-72
2022/10/28 03:15:26;;;;;;;5.03;2.70;;;14.30;43.80;;;;;;10383134;28;20244;-72
2022/10/28 03:20:30;;;;;;;3.70;2.87;;;14.30;43.70;;;;;;10384161;28;20233;-72
2022/10/28 03:25:33;;;;;;;3.30;2.73;;;14.30;43.70;;;;;;10380092;28;20238;-72
2022/10/28 03:30:36;;;;;;;3.43;2.90;;;14.20;43.60;;;;;;10381957;28;20288;-70
2022/10/28 03:35:41;;;;;;;3.10;2.80;;;14.20;43.60;;;;;;10384390;28;20252;-70
2022/10/28 03:40:47;;;;;;;3.03;2.67;;;14.20;43.60;;;;;;10381454;28;20909;-70
2022/10/28 03:45:50;;;;;;;3.73;2.90;;;14.20;43.60;;;;;;10382983;28;20242;-70
2022/10/28 03:50:54;;;;;;;3.10;2.87;;;14.10;43.60;;;;;;10381190;28;20222;-70
2022/10/28 03:55:59;;;;;;;3.83;2.60;;;14.10;43.60;;;;;;10378980;28;20285;-70
2022/10/28 04:01:03;;;;;;;3.67;2.83;;;14.10;43.60;;;;;;10384347;28;20245;-70
2022/10/28 04:06:08;;;;;;;3.70;2.47;;;14.10;43.60;;;;;;10383591;28;20242;-70
2022/10/28 04:11:11;;;;;;;3.33;2.90;;;14.10;43.60;;;;;;10385606;28;20276;-69
2022/10/28 04:16:15;;;;;;;3.47;2.40;;;14.10;43.60;;;;;;10385370;28;20234;-69
2022/10/28 04:21:19;;;;;;;2.70;2.50;;;14.10;43.60;;;;;;10380828;28;20241;-69
2022/10/28 04:26:22;;;;;;;2.30;2.13;;;14.10;43.60;;;;;;10386861;28;20242;-69
2022/10/28 04:31:25;;;;;;;2.60;2.40;;;14.10;43.60;;;;;;10389326;28;20767;-70
2022/10/28 04:36:30;;;;;;;6.70;2.73;;;14.10;43.60;;;;;;10390144;28;20230;-70
2022/10/28 04:41:33;;;;;;;3.27;2.97;;;14.10;43.60;;;;;;10388896;28;20229;-70
2022/10/28 04:46:36;;;;;;;4.23;2.60;;;14.00;43.40;;;;;;10386828;28;20293;-70
2022/10/28 04:51:41;;;;;;;2.77;2.30;;;14.00;43.40;;;;;;10386557;28;20234;-70
2022/10/28 04:56:44;;;;;;;2.90;2.60;;;13.90;44.10;;;;;;10381570;28;20262;-69
2022/10/28 05:01:47;;;;;;;4.00;2.60;;;13.90;43.40;;;;;;10381922;28;20226;-70
2022/10/28 05:06:52;;;;;;;5.90;3.10;;;13.90;43.40;;;;;;10385420;28;20230;-70
2022/10/28 05:11:55;;;;;;;4.27;2.90;;;13.80;43.50;;;;;;10381705;28;20230;-70
2022/10/28 05:16:58;;;;;;;4.10;3.20;;;13.80;43.60;;;;;;10385946;28;20233;-70
2022/10/28 05:22:03;;;;;;;4.23;3.20;;;13.80;43.40;;;;;;10378274;28;20277;-70
2022/10/28 05:27:06;;;;;;;2.77;2.50;;;13.80;44.60;;;;;;10373471;28;20230;-70
2022/10/28 05:32:09;;;;;;;4.10;3.17;;;13.80;44.60;;;;;;10382957;28;20229;-71
2022/10/28 05:37:14;;;;;;;2.57;2.33;;;13.80;44.40;;;;;;10379705;28;20234;-68
2022/10/28 05:42:17;;;;;;;4.00;2.60;;;13.80;44.30;;;;;;10380406;28;20643;-68
2022/10/28 05:47:20;;;;;;;6.87;3.20;;;13.80;44.10;;;;;;10379274;28;20304;-68
2022/10/28 05:52:25;;;;;;;3.50;2.67;;;13.80;44.10;;;;;;10385191;28;20241;-68
2022/10/28 05:57:28;;;;;;;3.70;3.10;;;13.80;44.50;;;;;;10381414;28;20654;-68
2022/10/28 06:02:31;;;;;;;4.53;2.70;;;13.80;44.30;;;;;;10378344;28;20233;-68
2022/10/28 06:07:36;;;;;;;5.80;3.17;;;13.80;44.40;;;;;;10379981;28;20241;-68
2022/10/28 06:12:39;;;;;;;3.67;2.70;;;13.80;44.70;;;;;;10387604;28;20313;-68
2022/10/28 06:17:42;;;;;;;4.83;2.93;;;13.80;44.40;;;;;;10380235;28;20241;-68
2022/10/28 06:22:51;;;;;;;2.90;2.63;;;13.80;44.40;;;;;;10381957;28;20229;-68
2022/10/28 06:27:56;;;;;;;5.67;3.20;;;13.80;44.90;;;;;;10383961;28;20240;-68
2022/10/28 06:32:59;;;;;;;3.50;3.20;;;13.80;44.60;;;;;;10378613;28;20225;-68
2022/10/28 06:38:03;;;;;;;6.30;3.00;;;13.90;44.70;;;;;;10376035;28;20718;-70
2022/10/28 06:43:13;;;;;;;3.23;2.93;;;13.80;44.80;;;;;;10381603;28;20229;-71
2022/10/28 06:48:16;;;;;;;4.40;3.40;;;13.80;44.60;;;;;;10377127;28;20234;-72
2022/10/28 06:53:23;;;;;;;4.03;3.30;;;13.80;44.80;;;;;;10381048;28;20230;-72
2022/10/28 06:58:27;;;;;;;5.77;3.33;;;13.80;45.70;;;;;;10377233;28;20230;-71
2022/10/28 07:03:31;;;;;;;4.93;4.53;;;13.80;45.30;;;;;;10375820;28;20229;-71
2022/10/28 07:08:36;;;;;;;9.17;4.80;;;13.80;45.50;;;;;;10378441;28;20835;-71
2022/10/28 07:13:39;;;;;;;4.47;3.50;;;13.90;46.30;;;;;;10377392;28;20711;-71
2022/10/28 07:18:45;;;;;;;3.93;3.20;;;13.90;46.00;;;;;;10378138;28;20240;-71
2022/10/28 07:23:49;;;;;;;4.13;3.37;;;14.00;46.40;;;;;;10380707;28;20234;-71
2022/10/28 07:28:52;;;;;;;5.50;3.67;;;14.10;47.10;;;;;;10381303;28;20249;-71
2022/10/28 07:33:56;;;;;;;3.93;3.27;;;14.20;47.00;;;;;;10378212;28;20222;-71
2022/10/28 07:39:00;;;;;;;5.20;3.17;;;14.30;47.10;;;;;;10378294;28;20731;-71
2022/10/28 07:44:04;;;;;;;4.97;3.10;;;14.40;47.50;;;;;;10376414;28;20226;-71
2022/10/28 07:49:07;;;;;;;5.03;3.30;;;14.50;47.40;;;;;;10376969;28;20231;-71
2022/10/28 07:54:11;;;;;;;3.70;3.30;;;14.50;47.20;;;;;;10374253;28;20223;-71
2022/10/28 07:59:15;;;;;;;3.53;3.10;;;14.60;47.70;;;;;;10374759;28;20237;-71
2022/10/28 08:04:18;;;;;;;4.00;3.30;;;14.60;47.30;;;;;;10375680;28;20267;-74
2022/10/28 08:09:23;;;;;;;4.57;3.27;;;14.70;47.30;;;;;;10372717;28;20283;-71
2022/10/28 08:14:26;;;;;;;4.43;2.97;;;14.80;48.30;;;;;;10374479;28;20237;-71
2022/10/28 08:19:29;;;;;;;3.40;3.10;;;14.90;48.00;;;;;;10375542;28;20237;-71
2022/10/28 08:24:35;;;;;;;4.40;2.80;;;15.00;48.40;;;;;;10372706;28;20784;-71
2022/10/28 08:29:38;;;;;;;3.70;3.23;;;15.20;49.40;;;;;;10376016;28;20248;-71
2022/10/28 08:34:41;;;;;;;2.70;2.50;;;15.30;48.80;;;;;;10376218;28;20232;-71
2022/10/28 08:39:47;;;;;;;2.97;2.57;;;15.50;48.60;;;;;;10371412;28;20726;-73
2022/10/28 08:45:03;;;;;;;4.33;2.80;;;15.60;48.60;;;;;;10369825;28;20230;-71
2022/10/28 08:50:13;;;;;;;4.23;3.07;;;15.80;48.70;;;;;;10369670;28;20232;-71
2022/10/28 08:55:23;;;;;;;4.80;3.20;;;15.90;48.50;;;;;;10372804;28;20231;-71
2022/10/28 09:00:28;;;;;;;5.43;4.60;;;16.00;48.60;;;;;;10376150;28;20234;-71
2022/10/28 09:05:32;;;;;;;4.40;3.20;;;16.20;48.60;;;;;;10371186;28;20249;-71
2022/10/28 09:10:56;;;;;;;4.43;3.53;;;16.30;48.30;;;;;;10380131;28;20264;-71
2022/10/28 09:16:06;;;;;;;3.43;3.13;;;16.40;49.20;;;;;;10380738;28;20716;-71
2022/10/28 09:21:21;;;;;;;3.93;2.93;;;16.50;49.60;;;;;;10377330;28;20230;-71
2022/10/28 09:26:41;;;;;;;4.50;3.27;;;16.70;49.50;;;;;;10384299;28;20241;-71
2022/10/28 09:31:47;;;;;;;5.87;2.90;;;16.80;48.80;;;;;;10379541;28;20253;-71
2022/10/28 09:36:55;;;;;;;3.87;2.70;;;17.00;48.70;;;;;;10379347;28;20245;-71
2022/10/28 09:42:02;;;;;;;5.00;2.30;;;17.20;49.10;;;;;;10380247;28;20226;-71
2022/10/28 09:47:15;;;;;;;3.43;2.47;;;17.40;49.00;;;;;;10376662;28;20238;-71
2022/10/28 09:52:22;;;;;;;2.90;2.60;;;17.70;48.70;;;;;;10382528;28;20665;-71
2022/10/28 09:57:30;;;;;;;2.93;2.60;;;18.00;48.40;;;;;;10388433;28;20230;-71
2022/10/28 10:02:34;;;;;;;2.97;2.67;;;18.30;48.00;;;;;;10386879;28;20276;-71
2022/10/28 10:07:43;;;;;;;2.23;2.03;;;18.50;47.40;;;;;;10380526;28;20288;-71
2022/10/28 10:12:49;;;;;;;4.00;2.53;;;18.70;47.50;;;;;;10385365;28;20247;-71
2022/10/28 10:17:57;;;;;;;6.93;2.23;;;19.00;47.40;;;;;;10380769;28;20226;-71
2022/10/28 10:23:01;;;;;;;2.80;2.00;;;19.20;47.00;;;;;;10380743;28;20268;-71
2022/10/28 10:28:15;;;;;;;3.33;2.10;;;19.50;47.10;;;;;;10381467;28;20257;-70
2022/10/28 10:33:22;;;;;;;2.40;1.80;;;19.80;46.40;;;;;;10383668;28;20229;-73
2022/10/28 10:38:26;;;;;;;2.93;2.00;;;20.00;46.30;;;;;;10382943;28;20237;-72
2022/10/28 10:43:36;;;;;;;2.70;1.97;;;20.30;45.90;;;;;;10384029;28;20225;-72
2022/10/28 10:48:39;;;;;;;3.37;2.00;;;20.60;45.10;;;;;;10382107;28;20230;-71
2022/10/28 10:53:48;;;;;;;2.63;2.00;;;20.80;45.80;;;;;;10379604;28;20230;-71
2022/10/28 10:58:55;;;;;;;2.80;2.20;;;21.00;44.30;;;;;;10379428;28;20288;-71
2022/10/28 11:04:01;;;;;;;3.43;2.10;;;21.20;44.80;;;;;;10377396;28;20350;-71
2022/10/28 11:09:06;;;;;;;2.83;2.00;;;21.40;44.70;;;;;;10377135;28;20244;-72
2022/10/28 11:14:23;;;;;;;2.00;1.80;;;21.50;44.10;;;;;;10383890;28;20236;-71
2022/10/28 11:19:29;;;;;;;3.67;2.00;;;21.70;43.40;;;;;;10381937;28;20295;-72
2022/10/28 11:24:47;;;;;;;3.70;1.70;;;21.90;43.30;;;;;;10380483;28;20221;-72
2022/10/28 11:29:52;;;;;;;3.63;1.57;;;22.10;42.60;;;;;;10387901;28;20233;-72
2022/10/28 11:35:13;;;;;;;2.00;1.50;;;22.30;43.10;;;;;;10380992;28;20229;-71
2022/10/28 11:40:31;;;;;;;3.80;1.60;;;22.40;42.10;;;;;;10381365;28;20242;-71
2022/10/28 11:45:42;;;;;;;1.63;1.50;;;22.50;41.70;;;;;;10379829;28;20236;-72
2022/10/28 11:51:09;;;;;;;3.40;1.67;;;22.60;41.80;;;;;;10382259;28;20605;-71
2022/10/28 11:56:22;;;;;;;3.33;1.63;;;22.70;41.40;;;;;;10375553;28;20233;-71
2022/10/28 12:01:40;;;;;;;1.70;1.27;;;22.80;41.00;;;;;;10378327;28;20264;-72
2022/10/28 12:07:26;;;;;;;2.70;1.33;;;23.00;40.40;;;;;;10378582;28;20234;-71
2022/10/28 12:12:37;;;;;;;2.13;1.40;;;23.10;41.00;;;;;;10379368;28;20229;-72
2022/10/28 12:17:50;;;;;;;2.67;1.40;;;23.20;40.30;;;;;;10380309;28;20643;-71
2022/10/28 12:22:57;;;;;;;3.27;1.47;;;23.30;40.00;;;;;;10380272;28;20236;-71
2022/10/28 12:28:04;;;;;;;1.73;1.40;;;23.40;40.20;;;;;;10378583;28;20341;-71
2022/10/28 12:33:14;;;;;;;2.83;1.30;;;23.50;40.20;;;;;;10376421;28;20222;-71
2022/10/28 12:38:26;;;;;;;2.87;1.20;;;23.60;39.70;;;;;;10378166;28;20230;-71
2022/10/28 12:43:35;;;;;;;1.80;1.30;;;23.70;39.80;;;;;;10375019;28;20291;-71
2022/10/28 12:48:46;;;;;;;4.67;1.50;;;23.70;39.80;;;;;;10381072;28;20285;-72
2022/10/28 12:53:58;;;;;;;1.70;1.60;;;23.80;39.40;;;;;;10383469;28;20225;-71
2022/10/28 12:59:06;;;;;;;2.30;1.53;;;23.80;38.90;;;;;;10386960;28;20229;-71
2022/10/28 13:04:12;;;;;;;3.73;1.50;;;23.80;39.40;;;;;;10384989;28;20631;-74
2022/10/28 13:09:44;;;;;;;4.20;1.60;;;23.90;39.00;;;;;;10385059;28;20229;-71
2022/10/28 13:15:08;;;;;;;2.00;1.57;;;24.00;39.00;;;;;;10384144;28;20863;-71
2022/10/28 13:20:27;;;;;;;3.73;1.50;;;24.00;38.80;;;;;;10384403;28;20234;-71
2022/10/28 13:25:58;;;;;;;3.30;1.57;;;24.00;38.80;;;;;;10386081;28;20304;-71
2022/10/28 13:31:04;;;;;;;2.80;1.60;;;23.90;38.80;;;;;;10379532;28;20241;-71
2022/10/28 13:36:16;;;;;;;2.20;1.60;;;23.90;39.60;;;;;;10384476;28;20244;-71
2022/10/28 13:41:34;;;;;;;2.00;1.60;;;23.80;38.80;;;;;;10388766;28;20238;-71
2022/10/28 13:46:59;;;;;;;1.93;1.63;;;23.80;39.10;;;;;;10380389;28;20232;-71
2022/10/28 13:52:19;;;;;;;3.03;2.00;;;23.70;39.30;;;;;;10380999;28;20233;-71
2022/10/28 13:57:27;;;;;;;2.63;2.00;;;23.70;39.30;;;;;;10384425;28;20237;-72
2022/10/28 14:02:36;;;;;;;3.73;1.83;;;23.70;39.40;;;;;;10388996;28;20235;-71
2022/10/28 14:07:53;;;;;;;3.77;1.67;;;23.60;39.40;;;;;;10384084;28;20597;-72
2022/10/28 14:12:59;;;;;;;3.33;1.50;;;23.60;38.90;;;;;;10382060;28;20233;-72
2022/10/28 14:18:05;;;;;;;3.07;1.80;;;23.60;39.20;;;;;;10387914;28;20230;-71
2022/10/28 14:24:05;;;;;;;3.20;1.73;;;23.60;39.70;;;;;;10382585;28;20226;-66
2022/10/28 14:29:23;;;;;;;1.57;1.47;;;23.60;39.00;;;;;;10378994;28;20221;-67
2022/10/28 14:34:50;;;;;;;4.53;2.57;;;23.60;38.60;;;;;;10380561;28;20229;-66
2022/10/28 14:40:08;;;;;;;3.17;2.03;;;23.60;39.10;;;;;;10385063;28;20275;-67
2022/10/28 14:45:23;;;;;;;3.07;2.20;;;23.60;38.20;;;;;;10383644;28;20265;-67
2022/10/28 14:50:34;;;;;;;3.10;2.47;;;23.60;38.80;;;;;;10377535;28;20575;-67
2022/10/28 14:55:39;;;;;;;5.10;2.80;;;23.60;39.10;;;;;;10381526;28;20234;-69
2022/10/28 15:00:53;;;;;;;5.57;2.80;;;23.50;39.60;;;;;;10380588;28;20238;-69
2022/10/28 15:06:01;;;;;;;3.27;2.40;;;23.50;39.60;;;;;;10383533;28;20241;-72
2022/10/28 15:11:07;;;;;;;4.83;3.77;;;23.40;39.50;;;;;;10382598;28;20790;-71
2022/10/28 15:16:21;;;;;;;5.57;3.33;;;23.40;39.50;;;;;;10382206;28;20261;-71
2022/10/28 15:21:24;;;;;;;5.40;3.27;;;23.30;39.40;;;;;;10379930;28;20237;-68
2022/10/28 15:26:28;;;;;;;5.30;2.47;;;23.30;39.40;;;;;;10379703;28;20241;-69
2022/10/28 15:31:31;;;;;;;7.03;2.80;;;23.20;39.30;;;;;;10381925;28;20229;-69
2022/10/28 15:36:35;;;;;;;4.07;3.67;;;23.10;39.60;;;;;;10381866;28;20252;-69
2022/10/28 15:41:44;;;;;;;13.03;11.80;;;23.10;39.80;;;;;;10379016;28;20236;-69
2022/10/28 15:46:49;;;;;;;6.80;6.10;;;23.00;39.70;;;;;;10376702;28;20736;-69
2022/10/28 15:52:35;;;;;;;5.40;4.90;;;22.90;40.10;;;;;;10377287;28;20624;-69
2022/10/28 15:57:49;;;;;;;5.70;3.23;;;22.90;40.30;;;;;;10379048;28;20236;-66
2022/10/28 16:02:55;;;;;;;5.87;3.07;;;22.80;40.40;;;;;;10377884;28;20222;-67
2022/10/28 16:08:00;;;;;;;4.10;2.90;;;22.80;40.50;;;;;;10376106;28;20288;-68
2022/10/28 16:13:05;;;;;;;4.27;3.10;;;22.70;40.50;;;;;;10377745;28;20233;-69
2022/10/28 16:18:13;;;;;;;4.00;3.10;;;22.60;40.50;;;;;;10382796;28;20312;-68
2022/10/28 16:23:18;;;;;;;6.10;3.20;;;22.60;40.40;;;;;;10386951;28;20231;-68
2022/10/28 16:28:25;;;;;;;11.63;4.10;;;22.50;40.50;;;;;;10383141;28;20249;-68
2022/10/28 16:33:31;;;;;;;8.30;3.80;;;22.50;40.70;;;;;;10389198;28;20241;-68
2022/10/28 16:38:35;;;;;;;6.40;3.67;;;22.40;40.70;;;;;;10383953;28;20608;-68
2022/10/28 16:43:39;;;;;;;5.43;3.20;;;22.30;40.60;;;;;;10385231;28;20233;-68
2022/10/28 16:48:42;;;;;;;4.07;2.67;;;22.20;40.60;;;;;;10384057;28;20661;-73
2022/10/28 16:53:48;;;;;;;5.27;2.90;;;22.10;40.40;;;;;;10385275;28;20230;-73
2022/10/28 16:58:53;;;;;;;3.97;2.70;;;22.00;40.70;;;;;;10388831;28;20252;-73
2022/10/28 17:03:56;;;;;;;3.63;2.60;;;21.90;40.60;;;;;;10391194;28;20234;-72
2022/10/28 17:08:59;;;;;;;4.27;2.53;;;21.80;40.80;;;;;;10381997;28;20727;-73
2022/10/28 17:14:07;;;;;;;4.53;2.70;;;21.70;40.90;;;;;;10389457;28;20241;-72
2022/10/28 17:19:10;;;;;;;5.27;2.60;;;21.70;41.70;;;;;;10382570;28;20238;-68
2022/10/28 17:24:13;;;;;;;4.00;2.80;;;21.70;40.90;;;;;;10386335;28;20250;-66
2022/10/28 17:29:18;;;;;;;4.13;2.63;;;21.60;40.90;;;;;;10381446;28;20605;-69
2022/10/28 17:34:21;;;;;;;4.97;2.90;;;21.50;40.90;;;;;;10384875;28;20233;-73
2022/10/28 17:39:24;;;;;;;7.80;3.27;;;21.40;40.80;;;;;;10387283;28;20300;-73
2022/10/28 17:44:30;;;;;;;5.77;2.90;;;21.30;40.90;;;;;;10382921;28;20393;-73
2022/10/28 17:49:35;;;;;;;3.37;2.57;;;21.30;41.30;;;;;;10379141;28;20240;-73
2022/10/28 17:54:38;;;;;;;2.87;2.50;;;21.10;41.10;;;;;;10375906;28;20729;-73
2022/10/28 17:59:43;;;;;;;4.90;2.60;;;21.10;41.20;;;;;;10380859;28;20226;-73
2022/10/28 18:04:46;;;;;;;3.80;2.47;;;21.10;41.50;;;;;;10382884;28;20760;-73
2022/10/28 18:09:49;;;;;;;4.70;2.83;;;21.00;41.40;;;;;;10379715;28;20222;-68
2022/10/28 18:14:56;;;;;;;3.77;2.83;;;20.90;41.50;;;;;;10383554;28;20229;-68
2022/10/28 18:20:00;;;;;;;5.37;3.10;;;20.90;41.70;;;;;;10379041;28;20241;-73
2022/10/28 18:25:04;;;;;;;3.30;2.50;;;20.80;41.50;;;;;;10378149;28;20602;-69
2022/10/28 18:30:10;;;;;;;3.53;2.50;;;20.80;41.60;;;;;;10379455;28;20234;-66
2022/10/28 18:35:13;;;;;;;4.20;3.13;;;20.80;41.90;;;;;;10379313;28;20252;-73
2022/10/28 18:40:16;;;;;;;7.60;4.30;;;20.70;41.70;;;;;;10384131;28;20238;-73
2022/10/28 18:45:21;;;;;;;5.13;4.67;;;20.70;41.70;;;;;;10380664;28;20236;-75
2022/10/28 18:50:24;;;;;;;5.43;4.23;;;20.60;41.80;;;;;;10376104;28;20612;-67
2022/10/28 18:55:27;;;;;;;4.20;3.57;;;20.50;41.90;;;;;;10378713;28;20723;-73
2022/10/28 19:00:33;;;;;;;4.87;4.40;;;20.40;41.80;;;;;;10372624;28;20242;-67
2022/10/28 19:05:36;;;;;;;6.07;4.47;;;20.30;42.10;;;;;;10376520;28;20239;-66
2022/10/28 19:10:40;;;;;;;5.57;4.93;;;20.20;42.00;;;;;;10375639;28;20237;-74
2022/10/28 19:15:47;;;;;;;7.07;4.27;;;20.10;42.40;;;;;;10373425;28;20230;-74
2022/10/28 19:20:51;;;;;;;7.70;5.53;;;20.00;43.00;;;;;;10375820;28;20233;-74
2022/10/28 19:25:55;;;;;;;7.10;5.63;;;20.00;42.70;;;;;;10375376;28;20234;-67
2022/10/28 19:31:04;;;;;;;9.53;8.30;;;19.90;42.80;;;;;;10376717;28;20232;-69
2022/10/28 19:36:11;;;;;;;7.80;6.77;;;19.90;43.50;;;;;;10373624;28;20226;-69
2022/10/28 19:41:17;;;;;;;6.20;5.63;;;19.90;43.00;;;;;;10372777;28;20755;-68
2022/10/28 19:46:22;;;;;;;7.93;5.57;;;19.90;43.10;;;;;;10370663;28;20244;-74
2022/10/28 19:51:27;;;;;;;5.87;5.33;;;19.90;43.30;;;;;;10371078;28;20649;-67
2022/10/28 19:56:32;;;;;;;6.50;4.97;;;19.90;43.30;;;;;;10371562;28;20237;-74
2022/10/28 20:01:39;;;;;;;7.63;6.03;;;19.90;43.10;;;;;;10376387;28;20231;-74
2022/10/28 20:06:42;;;;;;;6.57;5.73;;;19.90;43.30;;;;;;10372251;28;20279;-74
2022/10/28 20:11:45;;;;;;;6.43;5.20;;;19.80;42.80;;;;;;10374306;28;20221;-69
2022/10/28 20:16:50;;;;;;;5.40;4.90;;;19.80;42.90;;;;;;10372170;28;20230;-68
2022/10/28 20:21:53;;;;;;;5.10;4.30;;;19.80;43.30;;;;;;10378671;28;20229;-68
2022/10/28 20:26:57;;;;;;;4.80;4.30;;;19.70;43.00;;;;;;10375066;28;20233;-68
2022/10/28 20:32:01;;;;;;;6.03;4.17;;;19.70;43.10;;;;;;10370361;28;20265;-66
2022/10/28 20:37:04;;;;;;;4.87;4.03;;;19.60;43.30;;;;;;10369846;28;20234;-69
2022/10/28 20:42:07;;;;;;;5.47;4.93;;;19.60;43.10;;;;;;10375252;28;20233;-67
2022/10/28 20:47:12;;;;;;;4.43;4.03;;;19.60;43.30;;;;;;10368424;28;20230;-67
2022/10/28 20:52:15;;;;;;;5.07;4.53;;;19.60;43.60;;;;;;10372992;28;20233;-66
2022/10/28 20:57:18;;;;;;;8.90;7.40;;;19.60;43.50;;;;;;10373676;28;20233;-68
2022/10/28 21:02:23;;;;;;;9.80;7.00;;;19.50;43.30;;;;;;10370994;28;21143;-68
2022/10/28 21:07:26;;;;;;;13.83;9.57;;;19.40;43.50;;;;;;10381783;28;20236;-66
2022/10/28 21:12:29;;;;;;;10.23;7.80;;;19.40;43.40;;;;;;10380979;28;20229;-66
2022/10/28 21:17:34;;;;;;;6.73;5.77;;;19.30;43.50;;;;;;10382405;28;20292;-68
2022/10/28 21:22:37;;;;;;;6.07;4.50;;;19.20;44.00;;;;;;10381281;28;20371;-73
2022/10/28 21:27:40;;;;;;;7.73;4.60;;;19.10;43.80;;;;;;10379314;28;20241;-68
2022/10/28 21:32:46;;;;;;;4.87;4.07;;;19.00;43.90;;;;;;10375186;28;20235;-66
2022/10/28 21:37:50;;;;;;;5.97;4.10;;;18.90;44.30;;;;;;10378564;28;20233;-68
2022/10/28 21:42:53;;;;;;;5.37;4.30;;;18.90;44.30;;;;;;10378921;28;20797;-69
2022/10/28 21:47:57;;;;;;;6.77;4.40;;;18.80;44.20;;;;;;10376435;28;20241;-69
2022/10/28 21:53:02;;;;;;;4.47;4.07;;;18.80;44.60;;;;;;10375482;28;20249;-66
2022/10/28 21:58:06;;;;;;;7.73;3.60;;;18.90;44.20;;;;;;10376809;28;20230;-66
2022/10/28 22:03:11;;;;;;;6.40;4.00;;;18.80;44.20;;;;;;10380364;28;20644;-67
2022/10/28 22:08:16;;;;;;;5.47;3.93;;;18.80;44.30;;;;;;10371647;28;20238;-66
2022/10/28 22:13:19;;;;;;;4.10;3.80;;;18.80;44.00;;;;;;10377444;28;20225;-66
2022/10/28 22:18:23;;;;;;;4.43;3.90;;;18.80;43.70;;;;;;10373287;28;20245;-66
2022/10/28 22:23:28;;;;;;;6.27;5.10;;;18.70;43.60;;;;;;10376658;28;20238;-73
2022/10/28 22:28:31;;;;;;;5.90;4.53;;;18.60;43.40;;;;;;10377448;28;20280;-67
2022/10/28 22:33:37;;;;;;;5.93;4.33;;;18.60;43.40;;;;;;10377219;28;20233;-66
2022/10/28 22:38:40;;;;;;;4.60;4.10;;;18.50;43.80;;;;;;10375071;28;20237;-66
2022/10/28 22:43:45;;;;;;;7.63;4.80;;;18.50;43.60;;;;;;10377140;28;20233;-66
2022/10/28 22:48:50;;;;;;;7.40;6.60;;;18.40;43.60;;;;;;10373418;28;20237;-66
2022/10/28 22:53:53;;;;;;;7.37;5.27;;;18.30;43.70;;;;;;10378955;28;20241;-66
2022/10/28 22:58:58;;;;;;;6.07;5.10;;;18.30;43.60;;;;;;10371752;28;20234;-73
2022/10/28 23:04:02;;;;;;;5.87;4.97;;;18.20;43.70;;;;;;10375841;28;20246;-68
2022/10/28 23:09:05;;;;;;;4.27;3.87;;;18.20;43.90;;;;;;10374587;28;20865;-68
2022/10/28 23:14:08;;;;;;;5.67;5.07;;;18.10;43.70;;;;;;10380273;28;20234;-68
2022/10/28 23:19:13;;;;;;;7.37;4.50;;;18.00;43.70;;;;;;10377025;28;20249;-69
2022/10/28 23:24:16;;;;;;;4.63;4.07;;;18.00;43.90;;;;;;10374770;28;20295;-68
2022/10/28 23:29:19;;;;;;;6.20;4.40;;;17.90;43.70;;;;;;10384988;28;20234;-69
2022/10/28 23:34:25;;;;;;;6.20;5.20;;;17.80;43.80;;;;;;10375941;28;20240;-68
2022/10/28 23:39:30;;;;;;;5.63;4.63;;;17.80;44.20;;;;;;10379975;28;20312;-68
2022/10/28 23:44:33;;;;;;;6.47;4.40;;;17.70;44.00;;;;;;10380928;28;20238;-68
2022/10/28 23:49:37;;;;;;;4.67;4.03;;;17.70;44.10;;;;;;10377747;28;20234;-73
2022/10/28 23:54:40;;;;;;;5.23;4.30;;;17.70;44.50;;;;;;10378646;28;20280;-73
2022/10/28 23:59:43;;;;;;;3.90;3.50;;;17.70;44.40;;;;;;10377660;28;20242;-68
